Time;durP1;ratioP1;P1;durP2;ratioP2;P2;SDS_P1;SDS_P2;PMS_P1;PMS_P2;Temp;Humidity;BMP_temperature;BMP_pressure;BME280_temperature;BME280_humidity;BME280_pressure;Samples;Min_cycle;Max_cycle;Signal;HPM_P1;HPM_P2
2023/12/06 00:01:05;;;;;;;29.48;22.33;;;5.80;98.40;;;;;;5029852;28;20041;-80
2023/12/06 00:03:31;;;;;;;29.27;23.67;;;5.80;98.30;;;;;;5031128;28;20021;-79
2023/12/06 00:05:57;;;;;;;30.10;22.80;;;5.80;98.30;;;;;;5038242;28;20088;-79
2023/12/06 00:08:23;;;;;;;30.55;22.08;;;5.80;98.30;;;;;;5040167;28;20020;-79
2023/12/06 00:10:48;;;;;;;35.38;22.48;;;5.80;98.30;;;;;;5032610;28;20036;-80
2023/12/06 00:13:14;;;;;;;33.22;22.65;;;5.80;98.20;;;;;;5038838;28;20037;-80
2023/12/06 00:15:40;;;;;;;30.92;22.55;;;5.80;98.20;;;;;;5029949;28;20025;-79
2023/12/06 00:18:06;;;;;;;30.95;21.73;;;5.80;98.20;;;;;;5032960;28;20028;-81
2023/12/06 00:20:32;;;;;;;29.35;22.45;;;5.80;98.20;;;;;;5038542;28;20630;-79
2023/12/06 00:22:57;;;;;;;25.95;21.30;;;5.80;98.20;;;;;;5041614;28;20434;-79
2023/12/06 00:25:23;;;;;;;30.25;22.55;;;5.70;98.20;;;;;;5039434;28;20032;-79
2023/12/06 00:27:49;;;;;;;28.33;21.48;;;5.70;98.20;;;;;;5043466;28;20456;-79
2023/12/06 00:30:15;;;;;;;29.70;22.35;;;5.70;98.20;;;;;;5039294;28;20037;-80
2023/12/06 00:32:41;;;;;;;28.20;19.95;;;5.60;98.20;;;;;;5038558;28;20048;-80
2023/12/06 00:35:09;;;;;;;28.77;21.35;;;5.60;98.20;;;;;;5042598;28;20517;-79
2023/12/06 00:37:36;;;;;;;28.60;21.27;;;5.60;98.20;;;;;;5041231;28;20562;-80
2023/12/06 00:40:03;;;;;;;31.55;22.73;;;5.60;98.20;;;;;;5039307;28;20033;-79
2023/12/06 00:42:29;;;;;;;28.58;20.88;;;5.50;98.20;;;;;;5039342;28;20032;-79
2023/12/06 00:44:54;;;;;;;27.88;20.67;;;5.40;98.10;;;;;;5041583;28;20033;-79
2023/12/06 00:47:20;;;;;;;30.88;21.25;;;5.30;98.10;;;;;;5040242;28;20017;-80
2023/12/06 00:49:46;;;;;;;28.30;20.58;;;5.30;98.20;;;;;;5038204;28;20264;-80
2023/12/06 00:52:12;;;;;;;28.40;20.25;;;5.30;98.20;;;;;;5033364;28;20424;-80
2023/12/06 00:54:38;;;;;;;31.27;22.20;;;5.30;98.20;;;;;;5040575;28;20091;-79
2023/12/06 00:57:04;;;;;;;25.65;20.63;;;5.20;98.20;;;;;;5037478;28;20397;-78
2023/12/06 00:59:29;;;;;;;27.70;20.35;;;5.20;98.20;;;;;;5040660;28;20033;-79
2023/12/06 01:01:55;;;;;;;30.63;20.02;;;5.10;98.20;;;;;;5037370;28;20029;-79
2023/12/06 01:04:21;;;;;;;26.08;19.98;;;5.10;98.20;;;;;;5033126;28;20026;-79
2023/12/06 01:06:47;;;;;;;25.88;20.60;;;5.10;98.20;;;;;;5039796;28;20059;-80
2023/12/06 01:09:12;;;;;;;26.73;19.58;;;5.10;98.20;;;;;;5043405;28;20621;-80
2023/12/06 01:11:38;;;;;;;29.27;20.33;;;5.10;98.20;;;;;;5044595;28;20032;-80
2023/12/06 01:14:04;;;;;;;24.90;19.20;;;5.00;98.10;;;;;;5040629;28;20087;-79
2023/12/06 01:16:29;;;;;;;25.08;18.73;;;5.00;98.10;;;;;;5039972;28;20124;-79
2023/12/06 01:18:55;;;;;;;25.40;18.38;;;4.90;98.10;;;;;;5039771;28;20072;-80
2023/12/06 01:21:21;;;;;;;25.83;18.83;;;4.90;98.10;;;;;;5038326;28;20049;-80
2023/12/06 01:23:47;;;;;;;24.00;18.15;;;4.80;98.10;;;;;;5055846;28;20082;-80
2023/12/06 01:26:12;;;;;;;21.48;18.20;;;4.80;98.10;;;;;;5048896;28;20033;-79
2023/12/06 01:28:38;;;;;;;22.65;18.15;;;4.70;98.20;;;;;;5051277;28;20024;-79
2023/12/06 01:31:04;;;;;;;24.35;17.90;;;4.70;98.20;;;;;;5040023;28;20053;-80
2023/12/06 01:33:29;;;;;;;23.77;18.55;;;4.70;98.30;;;;;;5017844;28;20075;-79
2023/12/06 01:35:55;;;;;;;26.80;19.15;;;4.60;98.30;;;;;;5041321;28;20033;-79
2023/12/06 01:38:21;;;;;;;25.45;18.52;;;4.70;98.40;;;;;;5038916;28;20028;-80
2023/12/06 01:40:46;;;;;;;31.45;20.33;;;4.60;98.40;;;;;;5036438;28;20220;-79
2023/12/06 01:43:12;;;;;;;27.25;18.70;;;4.60;98.40;;;;;;5036742;28;20386;-80
2023/12/06 01:45:37;;;;;;;24.08;18.25;;;4.50;98.40;;;;;;5040470;28;20037;-80
2023/12/06 01:48:04;;;;;;;24.13;18.80;;;4.50;98.40;;;;;;5043138;28;20338;-79
2023/12/06 01:50:31;;;;;;;23.70;18.52;;;4.50;98.50;;;;;;5035731;28;20045;-79
2023/12/06 01:52:59;;;;;;;25.38;17.88;;;4.50;98.50;;;;;;5041375;28;20021;-79
2023/12/06 01:55:24;;;;;;;23.95;17.83;;;4.50;98.60;;;;;;5036637;28;20029;-79
2023/12/06 01:57:51;;;;;;;24.65;17.60;;;4.50;98.70;;;;;;5040353;28;21401;-79
2023/12/06 02:00:17;;;;;;;25.38;18.70;;;4.50;98.70;;;;;;5041348;28;20037;-79
2023/12/06 02:02:44;;;;;;;25.50;18.73;;;4.50;98.70;;;;;;5039972;28;20033;-79
2023/12/06 02:05:11;;;;;;;24.02;18.17;;;4.50;98.70;;;;;;5038929;28;20021;-80
2023/12/06 02:07:38;;;;;;;23.05;18.17;;;4.40;98.60;;;;;;5037608;28;20417;-79
2023/12/06 02:10:04;;;;;;;24.80;17.75;;;4.50;98.70;;;;;;5035186;28;20060;-79
2023/12/06 02:12:29;;;;;;;26.75;19.88;;;4.40;98.60;;;;;;5039127;28;20071;-80
2023/12/06 02:14:58;;;;;;;24.42;17.80;;;4.30;98.50;;;;;;5030428;28;20041;-79
2023/12/06 02:17:25;;;;;;;26.17;18.90;;;4.30;98.60;;;;;;5040007;28;20043;-79
2023/12/06 02:19:53;;;;;;;21.85;17.70;;;4.30;98.60;;;;;;5036499;28;20391;-79
2023/12/06 02:22:19;;;;;;;24.02;18.70;;;4.30;98.60;;;;;;5030085;28;20040;-80
2023/12/06 02:24:48;;;;;;;25.30;18.88;;;4.30;98.70;;;;;;5031945;28;20028;-80
2023/12/06 02:27:15;;;;;;;27.73;18.95;;;4.40;98.70;;;;;;5035924;28;20022;-80
2023/12/06 02:29:40;;;;;;;24.63;19.48;;;4.40;98.80;;;;;;5044455;28;20047;-79
2023/12/06 02:32:06;;;;;;;25.13;18.75;;;4.40;98.80;;;;;;5038536;28;20029;-80
2023/12/06 02:34:33;;;;;;;27.95;18.75;;;4.50;98.80;;;;;;5035474;28;20056;-80
2023/12/06 02:37:02;;;;;;;29.67;19.02;;;4.60;98.80;;;;;;5044016;28;20100;-79
2023/12/06 02:39:34;;;;;;;25.48;17.55;;;4.60;98.60;;;;;;5038666;28;20076;-80
2023/12/06 02:41:59;;;;;;;26.83;18.27;;;4.60;98.50;;;;;;5062779;28;20021;-79
2023/12/06 02:44:25;;;;;;;28.60;18.92;;;4.70;98.40;;;;;;5064817;28;20049;-80
2023/12/06 02:46:51;;;;;;;25.50;18.13;;;4.70;98.30;;;;;;5064572;28;20048;-80
2023/12/06 02:49:17;;;;;;;29.58;18.45;;;4.80;98.30;;;;;;5053445;28;20622;-80
2023/12/06 02:51:42;;;;;;;23.90;18.02;;;4.90;98.30;;;;;;5043393;28;20052;-80
2023/12/06 02:54:08;;;;;;;30.05;17.80;;;4.90;98.10;;;;;;5037853;28;20044;-80
2023/12/06 02:56:34;;;;;;;25.38;17.10;;;5.00;98.10;;;;;;5034849;28;20046;-79
2023/12/06 02:58:59;;;;;;;24.95;17.05;;;5.00;98.00;;;;;;5037097;28;20693;-79
2023/12/06 03:01:25;;;;;;;22.27;16.52;;;5.00;97.90;;;;;;5040949;28;20474;-79
2023/12/06 03:03:50;;;;;;;22.17;17.27;;;5.00;97.90;;;;;;5035806;28;20024;-80
2023/12/06 03:06:16;;;;;;;25.08;16.27;;;5.00;97.80;;;;;;5037697;28;20547;-80
2023/12/06 03:08:41;;;;;;;23.38;15.40;;;5.00;97.80;;;;;;5040282;28;20076;-80
2023/12/06 03:11:07;;;;;;;22.20;15.27;;;5.10;97.80;;;;;;5032321;28;20071;-79
2023/12/06 03:13:33;;;;;;;22.63;14.82;;;5.10;97.80;;;;;;5040823;28;20486;-80
2023/12/06 03:15:59;;;;;;;22.33;14.80;;;5.10;97.80;;;;;;5033127;28;20033;-79
2023/12/06 03:18:24;;;;;;;22.95;15.20;;;5.10;97.70;;;;;;5041602;28;20115;-79
2023/12/06 03:20:50;;;;;;;22.33;15.48;;;5.20;97.70;;;;;;5034352;28;20084;-79
2023/12/06 03:23:16;;;;;;;19.08;13.18;;;5.20;97.50;;;;;;5038262;28;20029;-79
2023/12/06 03:25:42;;;;;;;20.98;13.30;;;5.30;97.50;;;;;;5038308;28;20128;-80
2023/12/06 03:28:07;;;;;;;18.35;12.15;;;5.40;97.40;;;;;;5048914;28;20320;-78
2023/12/06 03:30:33;;;;;;;15.65;11.52;;;5.50;97.30;;;;;;5035969;28;20408;-79
2023/12/06 03:32:58;;;;;;;18.08;10.77;;;5.50;97.20;;;;;;5026046;28;20473;-79
2023/12/06 03:35:24;;;;;;;16.95;11.27;;;5.50;97.20;;;;;;5039151;28;20037;-78
2023/12/06 03:37:50;;;;;;;19.67;12.18;;;5.60;97.10;;;;;;5038407;28;20017;-79
2023/12/06 03:40:15;;;;;;;17.98;11.73;;;5.60;97.00;;;;;;5033591;28;20139;-79
2023/12/06 03:42:42;;;;;;;17.17;11.45;;;5.60;96.90;;;;;;5040300;28;20017;-80
2023/12/06 03:45:09;;;;;;;20.50;11.85;;;5.50;97.00;;;;;;5038343;28;20071;-80
2023/12/06 03:47:35;;;;;;;19.90;11.95;;;5.50;97.00;;;;;;5034479;28;20292;-79
2023/12/06 03:50:00;;;;;;;19.38;12.85;;;5.40;97.10;;;;;;5043685;28;20059;-80
2023/12/06 03:52:26;;;;;;;16.98;12.15;;;5.40;97.10;;;;;;5035764;28;20029;-80
2023/12/06 03:54:52;;;;;;;17.25;12.18;;;5.30;97.10;;;;;;5039681;28;20420;-79
2023/12/06 03:57:17;;;;;;;17.45;12.00;;;5.30;97.10;;;;;;5044945;28;20503;-80
2023/12/06 03:59:43;;;;;;;17.98;12.57;;;5.20;97.20;;;;;;5041459;28;20021;-80
2023/12/06 04:02:09;;;;;;;18.75;12.13;;;5.20;97.30;;;;;;5043851;28;20013;-78
2023/12/06 04:04:34;;;;;;;16.15;11.77;;;5.10;97.30;;;;;;5044197;28;20389;-80
2023/12/06 04:07:00;;;;;;;19.73;12.20;;;5.10;97.30;;;;;;5040287;28;20036;-79
2023/12/06 04:09:25;;;;;;;18.20;12.10;;;5.10;97.40;;;;;;5035143;28;20032;-79
2023/12/06 04:11:52;;;;;;;18.38;12.80;;;5.00;97.40;;;;;;5041908;28;20477;-79
2023/12/06 04:14:18;;;;;;;18.17;12.07;;;5.00;97.40;;;;;;5044620;28;20090;-80
2023/12/06 04:16:45;;;;;;;18.40;12.38;;;5.00;97.60;;;;;;5033443;28;20036;-79
2023/12/06 04:19:10;;;;;;;17.13;12.90;;;4.90;97.60;;;;;;5042149;28;20025;-80
2023/12/06 04:21:36;;;;;;;18.27;12.88;;;4.90;97.60;;;;;;5042435;28;20037;-79
2023/12/06 04:24:02;;;;;;;16.88;12.45;;;4.90;97.60;;;;;;5038166;28;20025;-79
2023/12/06 04:26:27;;;;;;;19.15;12.25;;;4.80;97.60;;;;;;5039338;28;20057;-79
2023/12/06 04:28:53;;;;;;;18.77;12.55;;;4.70;97.60;;;;;;5032732;28;20305;-80
2023/12/06 04:31:18;;;;;;;17.50;12.55;;;4.70;97.60;;;;;;5036045;28;20048;-79
2023/12/06 04:33:44;;;;;;;16.15;11.80;;;4.70;97.60;;;;;;5036576;28;20517;-78
2023/12/06 04:36:10;;;;;;;16.00;11.65;;;4.60;97.60;;;;;;5045856;28;20103;-80
2023/12/06 04:38:35;;;;;;;18.50;12.30;;;4.60;97.60;;;;;;5044392;28;20037;-78
2023/12/06 04:41:01;;;;;;;21.17;13.25;;;4.60;97.70;;;;;;5037768;28;20120;-79
2023/12/06 04:43:27;;;;;;;19.92;13.18;;;4.50;97.70;;;;;;5041532;28;21738;-79
2023/12/06 04:45:52;;;;;;;16.77;12.63;;;4.40;97.70;;;;;;5041403;28;20059;-79
2023/12/06 04:48:18;;;;;;;19.42;12.82;;;4.40;97.70;;;;;;5040822;28;20029;-79
2023/12/06 04:50:43;;;;;;;18.83;11.75;;;4.30;97.70;;;;;;5042325;28;20052;-79
2023/12/06 04:53:09;;;;;;;20.15;13.98;;;4.30;97.70;;;;;;5041884;28;20063;-79
2023/12/06 04:55:34;;;;;;;17.15;12.77;;;4.20;97.80;;;;;;5041527;28;20041;-79
2023/12/06 04:58:00;;;;;;;17.88;12.98;;;4.20;97.70;;;;;;5033248;28;20049;-79
2023/12/06 05:00:26;;;;;;;16.75;12.18;;;4.10;97.70;;;;;;5040626;28;20033;-80
2023/12/06 05:02:52;;;;;;;23.83;14.48;;;4.10;97.70;;;;;;5042917;28;20057;-79
2023/12/06 05:05:17;;;;;;;20.10;14.45;;;4.10;97.60;;;;;;5039406;28;20120;-79
2023/12/06 05:07:43;;;;;;;19.48;13.98;;;4.10;97.70;;;;;;5042008;28;20351;-79
2023/12/06 05:10:09;;;;;;;23.48;15.18;;;4.00;97.70;;;;;;5040701;28;20509;-80
2023/12/06 05:12:34;;;;;;;21.95;15.15;;;3.90;97.70;;;;;;5030806;28;20074;-79
2023/12/06 05:15:00;;;;;;;22.08;14.77;;;4.00;97.80;;;;;;5033880;28;20097;-79
2023/12/06 05:17:26;;;;;;;25.08;16.98;;;3.90;97.80;;;;;;5041104;28;20401;-78
2023/12/06 05:19:51;;;;;;;24.35;17.63;;;3.90;97.70;;;;;;5042840;28;20040;-80
2023/12/06 05:22:17;;;;;;;24.80;17.52;;;3.90;97.70;;;;;;5040024;28;20060;-79
2023/12/06 05:24:42;;;;;;;27.90;17.90;;;3.90;97.70;;;;;;5042037;28;20021;-80
2023/12/06 05:27:08;;;;;;;27.08;18.40;;;3.90;97.70;;;;;;5039621;28;20454;-79
2023/12/06 05:29:33;;;;;;;25.33;19.80;;;3.90;97.60;;;;;;5043050;28;20025;-79
2023/12/06 05:31:59;;;;;;;26.55;18.15;;;3.90;97.50;;;;;;5039992;28;20074;-79
2023/12/06 05:34:25;;;;;;;26.90;18.73;;;3.90;97.50;;;;;;5045029;28;20266;-78
2023/12/06 05:36:50;;;;;;;27.00;18.60;;;3.80;97.50;;;;;;5043986;28;20477;-79
2023/12/06 05:39:16;;;;;;;30.67;18.70;;;3.80;97.60;;;;;;5039091;28;20052;-78
2023/12/06 05:41:42;;;;;;;30.45;18.15;;;3.80;97.60;;;;;;5040010;28;20513;-78
2023/12/06 05:44:08;;;;;;;30.38;17.27;;;3.80;97.60;;;;;;5039092;28;20072;-79
2023/12/06 05:46:34;;;;;;;32.97;18.48;;;3.80;97.70;;;;;;5039436;28;20500;-78
2023/12/06 05:48:59;;;;;;;25.63;17.55;;;3.80;97.70;;;;;;5041038;28;20398;-78
2023/12/06 05:51:25;;;;;;;24.73;16.70;;;3.90;97.70;;;;;;5034453;28;20087;-78
2023/12/06 05:53:51;;;;;;;23.50;18.23;;;3.90;97.70;;;;;;5038395;28;20033;-78
2023/12/06 05:56:16;;;;;;;31.88;18.00;;;3.90;97.60;;;;;;5041235;28;20036;-78
2023/12/06 05:58:42;;;;;;;25.33;17.20;;;3.90;97.60;;;;;;5041866;28;20021;-78
2023/12/06 06:01:08;;;;;;;24.45;17.75;;;3.90;97.60;;;;;;5032001;28;20037;-79
2023/12/06 06:03:34;;;;;;;24.48;17.52;;;4.00;97.60;;;;;;5041598;28;20544;-78
2023/12/06 06:06:07;;;;;;;25.42;18.05;;;4.00;97.60;;;;;;5045564;28;20036;-79
2023/12/06 06:08:34;;;;;;;27.52;18.17;;;4.10;97.40;;;;;;5046741;28;20144;-78
2023/12/06 06:11:01;;;;;;;26.25;16.08;;;4.10;97.40;;;;;;5038885;28;20501;-78
2023/12/06 06:13:29;;;;;;;19.52;14.23;;;4.10;97.40;;;;;;5032159;28;20040;-77
2023/12/06 06:15:57;;;;;;;28.08;16.33;;;4.20;97.40;;;;;;5047851;28;20044;-78
2023/12/06 06:18:23;;;;;;;25.42;16.25;;;4.20;97.40;;;;;;5039363;28;20405;-76
2023/12/06 06:20:49;;;;;;;20.80;15.63;;;4.30;97.40;;;;;;5035290;28;20041;-78
2023/12/06 06:23:15;;;;;;;20.45;13.43;;;4.30;97.40;;;;;;5039007;28;20037;-78
2023/12/06 06:25:40;;;;;;;18.98;12.88;;;4.30;97.30;;;;;;5040472;28;20961;-78
2023/12/06 06:28:06;;;;;;;20.30;13.20;;;4.30;97.30;;;;;;5036716;28;20021;-77
2023/12/06 06:30:32;;;;;;;20.20;12.75;;;4.20;97.30;;;;;;5039748;28;20371;-78
2023/12/06 06:32:58;;;;;;;17.17;11.98;;;4.20;97.30;;;;;;5041018;28;20040;-80
2023/12/06 06:35:24;;;;;;;21.15;12.05;;;4.20;97.30;;;;;;5035937;28;20179;-81
2023/12/06 06:37:49;;;;;;;19.90;12.60;;;4.20;97.40;;;;;;5038984;28;20064;-80
2023/12/06 06:40:15;;;;;;;18.23;12.55;;;4.20;97.50;;;;;;5044419;28;20087;-80
2023/12/06 06:42:42;;;;;;;19.92;12.32;;;4.10;97.50;;;;;;5035488;28;20036;-80
2023/12/06 06:45:08;;;;;;;20.23;13.32;;;4.10;97.50;;;;;;5041954;28;20119;-81
2023/12/06 06:47:36;;;;;;;22.17;14.02;;;4.10;97.50;;;;;;5041655;28;20116;-80
2023/12/06 06:50:03;;;;;;;20.70;13.88;;;4.00;97.50;;;;;;5041151;28;20037;-80
2023/12/06 06:52:29;;;;;;;18.20;12.93;;;3.90;97.50;;;;;;5032410;28;20094;-81
2023/12/06 06:54:56;;;;;;;19.10;13.02;;;3.90;97.50;;;;;;5040998;28;20557;-80
2023/12/06 06:57:22;;;;;;;18.80;13.00;;;3.80;97.40;;;;;;5042248;28;20029;-80
2023/12/06 06:59:48;;;;;;;18.85;12.57;;;3.70;97.40;;;;;;5041368;28;20159;-81
2023/12/06 07:02:14;;;;;;;16.00;12.88;;;3.60;97.40;;;;;;5041472;28;20460;-80
2023/12/06 07:04:41;;;;;;;19.25;13.05;;;3.60;97.40;;;;;;5036747;28;20028;-81
2023/12/06 07:07:06;;;;;;;17.25;12.30;;;3.50;97.40;;;;;;5039462;28;20017;-79
2023/12/06 07:09:32;;;;;;;20.85;13.70;;;3.50;97.40;;;;;;5039441;28;20481;-79
2023/12/06 07:11:58;;;;;;;18.90;12.30;;;3.40;97.30;;;;;;5043982;28;20031;-81
2023/12/06 07:14:23;;;;;;;17.92;12.52;;;3.40;97.40;;;;;;5041476;28;20094;-80
2023/12/06 07:16:49;;;;;;;15.15;11.82;;;3.30;97.30;;;;;;5038344;28;20048;-80
2023/12/06 07:19:14;;;;;;;17.92;12.07;;;3.20;97.40;;;;;;5037590;28;20482;-83
2023/12/06 07:21:40;;;;;;;17.52;12.23;;;3.20;97.40;;;;;;5037737;28;20036;-77
2023/12/06 07:24:06;;;;;;;19.73;12.18;;;3.20;97.50;;;;;;5041725;28;20469;-78
2023/12/06 07:26:32;;;;;;;17.52;13.32;;;3.20;97.40;;;;;;5036260;28;20060;-77
2023/12/06 07:28:58;;;;;;;21.83;14.07;;;3.10;97.40;;;;;;5037956;28;20021;-76
2023/12/06 07:31:23;;;;;;;19.65;13.35;;;3.00;97.50;;;;;;5034073;28;20044;-80
2023/12/06 07:33:50;;;;;;;20.13;13.30;;;3.00;97.50;;;;;;5057481;28;20013;-76
2023/12/06 07:36:16;;;;;;;19.85;14.10;;;3.10;97.50;;;;;;5036197;28;20128;-76
2023/12/06 07:38:42;;;;;;;18.88;13.55;;;3.00;97.50;;;;;;5042636;28;20108;-80
2023/12/06 07:41:08;;;;;;;19.80;13.88;;;3.00;97.50;;;;;;5041181;28;20106;-75
2023/12/06 07:43:33;;;;;;;23.70;14.65;;;3.10;97.50;;;;;;5044310;28;20029;-75
2023/12/06 07:45:59;;;;;;;22.88;15.25;;;3.10;97.50;;;;;;5035501;28;20378;-75
2023/12/06 07:48:25;;;;;;;25.30;15.18;;;3.10;97.50;;;;;;5036549;28;20441;-80
2023/12/06 07:50:51;;;;;;;23.70;14.88;;;3.10;97.60;;;;;;5045084;28;20063;-80
2023/12/06 07:53:18;;;;;;;18.08;13.77;;;3.10;97.60;;;;;;5041362;28;20431;-80
2023/12/06 07:55:45;;;;;;;18.50;14.00;;;3.10;97.60;;;;;;5057653;28;20481;-80
2023/12/06 07:58:10;;;;;;;23.75;15.63;;;3.10;97.60;;;;;;5044562;28;20029;-80
2023/12/06 08:00:36;;;;;;;20.10;14.85;;;3.20;97.60;;;;;;5040388;28;20585;-80
2023/12/06 08:03:03;;;;;;;21.30;14.38;;;3.10;97.70;;;;;;5043501;28;20108;-80
2023/12/06 08:05:28;;;;;;;20.23;15.32;;;3.20;97.70;;;;;;5047392;28;20033;-80
2023/12/06 08:07:54;;;;;;;22.40;15.45;;;3.20;97.70;;;;;;5045161;28;20056;-79
2023/12/06 08:10:22;;;;;;;19.50;14.73;;;3.20;97.70;;;;;;5046121;28;20033;-77
2023/12/06 08:12:49;;;;;;;23.63;16.52;;;3.30;97.70;;;;;;5041889;28;20497;-75
2023/12/06 08:15:15;;;;;;;21.13;15.32;;;3.40;97.80;;;;;;5043191;28;20037;-75
2023/12/06 08:17:41;;;;;;;23.73;16.60;;;3.50;97.80;;;;;;5033654;28;20474;-76
2023/12/06 08:20:08;;;;;;;24.08;16.48;;;3.60;97.80;;;;;;5042012;28;20034;-74
2023/12/06 08:22:34;;;;;;;23.48;17.27;;;3.60;97.70;;;;;;5034370;28;20033;-75
2023/12/06 08:24:59;;;;;;;21.17;14.50;;;3.70;97.70;;;;;;5036968;28;20029;-75
2023/12/06 08:27:29;;;;;;;23.45;15.35;;;3.80;97.70;;;;;;5028158;28;20036;-75
2023/12/06 08:30:00;;;;;;;21.15;15.30;;;3.80;97.60;;;;;;5042133;28;20068;-76
2023/12/06 08:32:26;;;;;;;21.85;14.90;;;3.90;97.60;;;;;;5038805;28;20029;-76
2023/12/06 08:34:53;;;;;;;21.08;14.32;;;3.90;97.60;;;;;;5038195;28;20045;-76
2023/12/06 08:37:20;;;;;;;23.88;14.75;;;4.00;97.60;;;;;;5041004;28;20535;-75
2023/12/06 08:39:47;;;;;;;21.98;14.93;;;4.10;97.60;;;;;;5025180;28;20072;-75
2023/12/06 08:42:14;;;;;;;27.30;16.70;;;4.10;97.50;;;;;;5039777;28;20059;-75
2023/12/06 08:44:41;;;;;;;26.92;17.60;;;4.10;97.50;;;;;;5042711;28;20033;-74
2023/12/06 08:47:08;;;;;;;23.77;16.40;;;4.10;97.40;;;;;;5035997;28;20032;-74
2023/12/06 08:49:37;;;;;;;24.80;16.40;;;4.10;97.40;;;;;;5040203;28;20036;-75
2023/12/06 08:52:03;;;;;;;23.63;17.40;;;4.10;97.40;;;;;;5032682;28;20059;-75
2023/12/06 08:54:29;;;;;;;24.77;16.92;;;4.20;97.40;;;;;;5042917;28;20029;-76
2023/12/06 08:56:55;;;;;;;26.25;17.05;;;4.30;97.40;;;;;;5041352;28;20026;-75
2023/12/06 08:59:20;;;;;;;24.63;17.77;;;4.30;97.40;;;;;;5036298;28;20025;-75
2023/12/06 09:01:46;;;;;;;25.15;16.77;;;4.30;97.30;;;;;;5036634;28;20136;-73
2023/12/06 09:04:12;;;;;;;25.05;17.30;;;4.30;97.30;;;;;;5039738;28;20087;-76
2023/12/06 09:06:37;;;;;;;25.27;18.50;;;4.40;97.30;;;;;;5043796;28;20033;-76
2023/12/06 09:09:05;;;;;;;23.88;17.60;;;4.40;97.20;;;;;;5047101;28;20033;-75
2023/12/06 09:11:31;;;;;;;25.52;16.92;;;4.50;97.30;;;;;;5034712;28;20055;-76
2023/12/06 09:13:56;;;;;;;23.65;17.02;;;4.60;97.30;;;;;;5043528;28;20029;-76
2023/12/06 09:16:22;;;;;;;21.38;16.33;;;4.60;97.20;;;;;;5042974;28;20472;-75
2023/12/06 09:18:48;;;;;;;27.08;17.20;;;4.60;97.20;;;;;;5047417;28;20033;-75
2023/12/06 09:21:14;;;;;;;25.42;17.50;;;4.70;97.10;;;;;;5046269;28;20087;-74
2023/12/06 09:23:40;;;;;;;28.23;19.60;;;4.80;97.10;;;;;;5040319;28;20130;-75
2023/12/06 09:26:06;;;;;;;25.00;15.90;;;4.80;97.10;;;;;;5044796;28;20066;-75
2023/12/06 09:28:32;;;;;;;20.50;15.60;;;4.90;97.10;;;;;;5044017;28;20423;-74
2023/12/06 09:30:57;;;;;;;23.65;15.02;;;4.90;97.10;;;;;;5036846;28;20132;-74
2023/12/06 09:33:23;;;;;;;25.88;16.23;;;5.00;97.10;;;;;;5043363;28;20029;-75
2023/12/06 09:35:49;;;;;;;19.23;14.23;;;5.10;97.10;;;;;;5044056;28;20238;-74
2023/12/06 09:38:15;;;;;;;21.90;14.73;;;5.10;97.10;;;;;;5038167;28;20126;-75
2023/12/06 09:40:40;;;;;;;21.92;14.35;;;5.20;97.20;;;;;;5045203;28;20456;-76
2023/12/06 09:43:07;;;;;;;24.55;18.75;;;5.20;97.20;;;;;;5047351;28;20268;-76
2023/12/06 09:45:33;;;;;;;30.25;23.00;;;5.30;97.20;;;;;;5036013;28;20079;-76
2023/12/06 09:48:00;;;;;;;30.15;23.17;;;5.40;97.20;;;;;;5037453;28;20462;-76
2023/12/06 09:50:26;;;;;;;28.27;22.20;;;5.50;97.10;;;;;;5042172;28;20041;-75
2023/12/06 09:52:53;;;;;;;25.50;19.20;;;5.40;97.00;;;;;;5042639;28;20385;-76
2023/12/06 09:55:23;;;;;;;22.35;18.13;;;5.50;97.00;;;;;;5040533;28;20490;-75
2023/12/06 09:57:54;;;;;;;24.23;16.77;;;5.60;97.00;;;;;;5041394;28;20017;-75
2023/12/06 10:00:21;;;;;;;21.58;15.57;;;5.60;97.00;;;;;;5038437;28;20029;-75
2023/12/06 10:02:59;;;;;;;22.02;15.77;;;5.70;96.90;;;;;;5041444;28;20512;-76
2023/12/06 10:05:25;;;;;;;23.05;15.90;;;5.70;97.00;;;;;;5038687;28;20040;-76
2023/12/06 10:07:51;;;;;;;23.92;16.33;;;5.70;97.00;;;;;;5032554;28;20082;-74
2023/12/06 10:10:22;;;;;;;26.88;15.65;;;5.80;96.90;;;;;;5039709;28;20127;-75
2023/12/06 10:12:58;;;;;;;25.02;16.85;;;5.90;96.90;;;;;;5040722;28;20029;-76
2023/12/06 10:15:24;;;;;;;26.20;18.13;;;5.90;96.90;;;;;;5035140;28;20102;-75
2023/12/06 10:17:51;;;;;;;27.00;18.75;;;6.00;96.80;;;;;;5039735;28;20052;-75
2023/12/06 10:20:17;;;;;;;28.20;20.05;;;6.10;96.80;;;;;;5040856;28;20051;-74
2023/12/06 10:22:44;;;;;;;28.85;18.05;;;6.10;96.60;;;;;;5041121;28;20025;-75
2023/12/06 10:25:10;;;;;;;26.90;18.95;;;6.00;96.20;;;;;;5032901;28;20029;-73
2023/12/06 10:27:36;;;;;;;26.23;18.10;;;6.10;96.20;;;;;;5038351;28;20027;-75
2023/12/06 10:30:06;;;;;;;25.70;17.67;;;6.10;96.00;;;;;;5040572;28;20033;-74
2023/12/06 10:32:33;;;;;;;24.63;18.45;;;6.20;96.10;;;;;;5043184;28;20444;-74
2023/12/06 10:35:05;;;;;;;25.60;17.00;;;6.30;96.00;;;;;;5038932;28;20068;-73
2023/12/06 10:37:32;;;;;;;25.77;17.23;;;6.40;95.80;;;;;;5028639;28;20013;-76
2023/12/06 10:40:11;;;;;;;24.98;17.38;;;6.40;95.50;;;;;;5035056;28;20043;-74
2023/12/06 10:42:40;;;;;;;22.40;16.92;;;6.40;95.20;;;;;;5034294;28;20305;-75
2023/12/06 10:45:07;;;;;;;21.40;15.52;;;6.40;95.10;;;;;;5039094;28;20045;-77
2023/12/06 10:47:34;;;;;;;27.73;16.08;;;6.40;95.00;;;;;;5019570;28;20137;-75
2023/12/06 10:50:01;;;;;;;23.35;16.33;;;6.40;94.90;;;;;;5036300;28;20041;-74
2023/12/06 10:52:29;;;;;;;23.20;15.63;;;6.40;95.00;;;;;;5046151;28;20084;-76
2023/12/06 10:54:55;;;;;;;23.80;16.70;;;6.50;94.90;;;;;;5046209;28;20539;-77
2023/12/06 10:57:21;;;;;;;21.20;15.35;;;6.50;94.80;;;;;;5047264;28;20055;-76
2023/12/06 10:59:47;;;;;;;23.52;14.50;;;6.50;94.90;;;;;;5039576;28;20370;-75
2023/12/06 11:02:13;;;;;;;21.17;14.60;;;6.50;94.80;;;;;;5042788;28;20029;-76
2023/12/06 11:04:45;;;;;;;22.75;14.30;;;6.50;94.80;;;;;;5035065;28;20472;-75
2023/12/06 11:07:29;;;;;;;22.45;14.45;;;6.50;94.80;;;;;;5039257;28;20021;-75
2023/12/06 11:10:09;;;;;;;24.15;13.68;;;6.50;94.80;;;;;;5033925;28;20060;-75
2023/12/06 11:12:40;;;;;;;21.52;14.35;;;6.60;94.90;;;;;;5042178;28;20231;-77
2023/12/06 11:15:34;;;;;;;23.80;14.27;;;6.50;94.90;;;;;;5040607;28;20116;-75
2023/12/06 11:18:20;;;;;;;20.73;12.73;;;6.60;95.00;;;;;;5044743;28;20069;-75
2023/12/06 11:20:47;;;;;;;26.02;13.80;;;6.50;95.10;;;;;;5038875;28;20110;-75
2023/12/06 11:23:17;;;;;;;19.90;14.18;;;6.50;95.30;;;;;;5036452;28;20016;-75
2023/12/06 11:25:44;;;;;;;17.65;12.10;;;6.50;95.50;;;;;;5040621;28;20430;-75
2023/12/06 11:28:12;;;;;;;16.60;12.00;;;6.50;95.40;;;;;;5034585;28;20151;-75
2023/12/06 11:30:55;;;;;;;14.77;12.35;;;6.50;95.60;;;;;;5041597;28;20485;-76
2023/12/06 11:33:21;;;;;;;16.55;13.32;;;6.60;95.80;;;;;;5035545;28;20447;-75
2023/12/06 11:35:51;;;;;;;20.98;14.75;;;6.60;95.70;;;;;;5024883;28;20821;-77
2023/12/06 11:38:17;;;;;;;22.88;15.52;;;6.60;95.70;;;;;;5029794;28;20032;-77
2023/12/06 11:40:52;;;;;;;21.63;14.80;;;6.60;95.80;;;;;;5035626;28;20041;-78
2023/12/06 11:43:37;;;;;;;19.77;13.73;;;6.60;95.80;;;;;;5025266;28;20037;-75
2023/12/06 11:46:07;;;;;;;20.23;13.13;;;6.70;95.80;;;;;;5031792;28;20039;-76
2023/12/06 11:48:39;;;;;;;16.35;12.70;;;6.70;95.80;;;;;;5031392;28;20017;-77
2023/12/06 11:51:05;;;;;;;17.30;11.77;;;6.80;95.90;;;;;;5035309;28;20049;-75
2023/12/06 11:53:34;;;;;;;16.77;12.05;;;6.80;95.80;;;;;;5024819;28;20036;-78
2023/12/06 11:56:00;;;;;;;19.20;12.35;;;6.80;95.60;;;;;;5029034;28;20037;-77
2023/12/06 11:58:30;;;;;;;22.45;16.38;;;6.90;95.40;;;;;;5025251;28;20029;-78
2023/12/06 12:01:01;;;;;;;15.95;12.88;;;6.90;95.30;;;;;;5033313;28;20825;-77
2023/12/06 12:03:27;;;;;;;17.70;12.82;;;7.00;95.40;;;;;;5030271;28;20022;-76
2023/12/06 12:05:56;;;;;;;16.08;10.55;;;7.10;95.30;;;;;;5029850;28;20112;-78
2023/12/06 12:08:22;;;;;;;13.88;9.15;;;7.10;95.10;;;;;;5029044;28;20021;-77
2023/12/06 12:10:50;;;;;;;14.25;8.88;;;7.20;94.90;;;;;;5026400;28;20416;-77
2023/12/06 12:13:19;;;;;;;15.43;9.68;;;7.20;94.70;;;;;;5027241;28;20466;-77
2023/12/06 12:16:03;;;;;;;16.83;10.57;;;7.20;94.70;;;;;;5029011;28;20481;-78
2023/12/06 12:18:29;;;;;;;17.07;10.37;;;7.40;94.80;;;;;;5037894;28;20033;-77
2023/12/06 12:20:58;;;;;;;18.67;10.82;;;7.50;94.80;;;;;;5031054;28;20036;-77
2023/12/06 12:23:25;;;;;;;14.80;9.45;;;7.70;94.70;;;;;;5037739;28;20021;-77
2023/12/06 12:25:52;;;;;;;16.23;10.95;;;7.60;93.90;;;;;;5034670;28;20079;-76
2023/12/06 12:28:19;;;;;;;13.32;8.73;;;7.70;93.80;;;;;;5037628;28;20492;-78
2023/12/06 12:31:06;;;;;;;14.02;7.90;;;7.70;93.30;;;;;;5033589;28;20117;-77
2023/12/06 12:33:33;;;;;;;11.40;7.57;;;7.80;93.20;;;;;;5033586;28;20041;-76
2023/12/06 12:36:00;;;;;;;11.95;7.88;;;7.80;93.20;;;;;;5036279;28;20036;-76